Time;durP1;ratioP1;P1;durP2;ratioP2;P2;SDS_P1;SDS_P2;PMS_P1;PMS_P2;Temp;Humidity;BMP_temperature;BMP_pressure;BME280_temperature;BME280_humidity;BME280_pressure;Samples;Min_cycle;Max_cycle;Signal;HPM_P1;HPM_P2
2022/09/07 00:02:10;;;;;;;11.48;10.27;;;25.00;62.00;;;;;;5038394;28;20060;-89
2022/09/07 00:04:36;;;;;;;12.43;11.05;;;25.00;62.00;;;;;;5039170;28;20042;-87
2022/09/07 00:07:01;;;;;;;14.45;10.70;;;24.90;61.60;;;;;;5036036;28;20026;-87
2022/09/07 00:09:27;;;;;;;12.23;10.20;;;24.90;61.60;;;;;;5018883;28;20033;-89
2022/09/07 00:11:53;;;;;;;11.10;10.00;;;24.80;61.70;;;;;;5052066;28;20083;-82
2022/09/07 00:14:19;;;;;;;12.82;9.85;;;24.80;61.60;;;;;;5026788;28;20127;-88
2022/09/07 00:16:45;;;;;;;14.13;10.40;;;24.80;61.80;;;;;;5037725;28;20147;-87
2022/09/07 00:19:16;;;;;;;13.00;11.52;;;24.80;61.80;;;;;;5048442;28;20038;-89
2022/09/07 00:21:41;;;;;;;11.07;9.68;;;24.90;61.70;;;;;;5029014;28;20024;-80
2022/09/07 00:24:07;;;;;;;16.33;10.02;;;24.90;61.70;;;;;;5027944;28;20025;-89
2022/09/07 00:26:33;;;;;;;11.50;10.15;;;25.00;61.50;;;;;;5034541;28;20033;-80
2022/09/07 00:29:01;;;;;;;14.55;11.60;;;25.00;61.30;;;;;;5035783;28;20384;-80
2022/09/07 00:31:28;;;;;;;10.70;9.57;;;24.90;61.30;;;;;;5017646;28;20021;-89
2022/09/07 00:33:58;;;;;;;12.07;10.88;;;24.90;61.50;;;;;;5033890;28;20028;-86
2022/09/07 00:36:24;;;;;;;10.80;9.57;;;24.90;61.50;;;;;;5038650;28;20021;-83
2022/09/07 00:38:50;;;;;;;13.35;10.73;;;24.70;62.60;;;;;;5037023;28;20021;-84
2022/09/07 00:41:18;;;;;;;11.50;9.50;;;24.50;63.60;;;;;;5055412;28;20028;-91
2022/09/07 00:43:50;;;;;;;10.02;8.93;;;24.60;62.30;;;;;;5037173;28;20079;-81
2022/09/07 00:46:19;;;;;;;11.18;10.05;;;24.70;61.90;;;;;;5036735;28;20025;-87
2022/09/07 00:48:58;;;;;;;13.60;9.88;;;24.80;61.40;;;;;;5036980;28;20365;-89
2022/09/07 00:51:49;;;;;;;12.65;10.55;;;24.80;61.20;;;;;;5033864;28;20116;-83
2022/09/07 00:54:26;;;;;;;12.25;10.30;;;24.90;61.20;;;;;;5034619;28;20032;-80
2022/09/07 00:56:52;;;;;;;14.38;10.82;;;24.90;61.30;;;;;;5019288;28;20029;-89
2022/09/07 00:59:24;;;;;;;13.00;11.15;;;24.90;61.30;;;;;;5034449;28;20140;-92
2022/09/07 01:01:50;;;;;;;10.77;9.68;;;24.80;61.60;;;;;;5030803;28;20033;-94
2022/09/07 01:04:20;;;;;;;11.77;10.57;;;24.80;62.00;;;;;;5018078;28;20026;-92
2022/09/07 01:06:47;;;;;;;13.27;10.98;;;24.60;63.60;;;;;;5033716;28;20075;-80
2022/09/07 01:09:17;;;;;;;12.15;10.80;;;24.60;63.40;;;;;;5033621;28;20124;-80
2022/09/07 01:11:49;;;;;;;16.47;10.50;;;24.70;62.30;;;;;;5033042;28;20041;-80
2022/09/07 01:14:21;;;;;;;13.25;11.48;;;24.70;61.50;;;;;;5033386;28;20332;-82
2022/09/07 01:17:09;;;;;;;11.10;9.90;;;24.80;61.40;;;;;;5033389;28;20499;-80
2022/09/07 01:20:05;;;;;;;12.98;11.18;;;24.90;61.40;;;;;;5034028;28;20040;-84
2022/09/07 01:22:49;;;;;;;11.43;10.23;;;24.80;61.20;;;;;;5032603;28;20033;-89
2022/09/07 01:25:47;;;;;;;10.43;9.27;;;24.80;61.30;;;;;;5033526;28;20037;-81
2022/09/07 01:28:26;;;;;;;15.02;12.45;;;24.60;62.20;;;;;;5034249;28;20022;-87
2022/09/07 01:31:17;;;;;;;11.17;9.33;;;24.40;62.80;;;;;;5033901;28;20037;-82
2022/09/07 01:34:04;;;;;;;13.95;10.82;;;24.20;63.40;;;;;;5025745;28;20025;-92
2022/09/07 01:36:48;;;;;;;13.02;10.90;;;24.20;62.70;;;;;;5031662;28;20033;-81
2022/09/07 01:39:15;;;;;;;12.35;9.63;;;24.10;63.50;;;;;;5028533;28;20065;-80
2022/09/07 01:41:49;;;;;;;13.63;11.43;;;24.30;62.50;;;;;;5031285;28;20025;-81
2022/09/07 01:44:34;;;;;;;10.65;9.25;;;24.50;62.00;;;;;;5030267;28;20047;-93
2022/09/07 01:47:09;;;;;;;11.70;10.45;;;24.40;62.20;;;;;;5029812;28;20034;-91
2022/09/07 01:49:57;;;;;;;11.77;10.50;;;24.10;63.80;;;;;;5028464;28;20054;-92
2022/09/07 01:52:47;;;;;;;13.43;11.48;;;24.20;62.40;;;;;;5041362;28;20045;-89
2022/09/07 01:55:25;;;;;;;15.52;12.35;;;24.10;63.00;;;;;;5036031;28;20029;-88
2022/09/07 01:58:01;;;;;;;12.80;10.35;;;24.30;62.40;;;;;;5035961;28;20559;-91
2022/09/07 02:00:27;;;;;;;13.80;11.80;;;24.30;63.80;;;;;;5016541;28;20021;-89
2022/09/07 02:03:17;;;;;;;13.80;11.90;;;24.30;62.70;;;;;;5051303;28;20028;-93
2022/09/07 02:06:03;;;;;;;12.90;11.00;;;24.40;62.20;;;;;;5053835;28;20045;-92
2022/09/07 02:08:54;;;;;;;12.98;11.43;;;24.50;62.00;;;;;;5037311;28;20017;-93
2022/09/07 02:11:26;;;;;;;13.90;10.55;;;24.60;61.70;;;;;;5046788;28;20055;-82
2022/09/07 02:14:02;;;;;;;13.60;11.98;;;24.60;61.70;;;;;;5051033;28;20033;-85
2022/09/07 02:16:30;;;;;;;12.02;10.73;;;24.60;61.40;;;;;;5034112;28;20464;-96
2022/09/07 02:19:04;;;;;;;12.70;11.32;;;24.40;63.40;;;;;;5028459;28;20024;-84
2022/09/07 02:21:41;;;;;;;14.00;10.90;;;24.10;64.50;;;;;;5021103;28;20639;-80
2022/09/07 02:24:19;;;;;;;12.38;10.95;;;24.30;63.90;;;;;;5029214;28;20439;-80
2022/09/07 02:26:48;;;;;;;13.57;11.32;;;24.50;63.40;;;;;;5016432;28;20026;-92
2022/09/07 02:29:14;;;;;;;12.20;10.48;;;24.60;62.40;;;;;;5030789;28;20025;-93
2022/09/07 02:31:43;;;;;;;14.07;11.73;;;24.70;61.90;;;;;;5035396;28;20033;-94
2022/09/07 02:34:09;;;;;;;12.55;10.35;;;24.70;61.50;;;;;;5033454;28;20029;-95
2022/09/07 02:36:42;;;;;;;14.10;11.93;;;24.80;61.50;;;;;;5043121;28;20159;-89
2022/09/07 02:39:08;;;;;;;12.55;10.07;;;24.80;61.30;;;;;;5043203;28;20021;-79
2022/09/07 02:41:39;;;;;;;17.42;15.80;;;24.50;63.40;;;;;;5053196;28;20047;-91
2022/09/07 02:44:12;;;;;;;11.25;10.05;;;24.40;63.10;;;;;;5035032;28;20079;-93
2022/09/07 02:47:04;;;;;;;12.10;10.60;;;24.10;65.30;;;;;;5035600;28;20024;-93
2022/09/07 02:49:50;;;;;;;14.52;11.63;;;24.10;65.90;;;;;;5030282;28;20037;-93
2022/09/07 02:52:34;;;;;;;13.02;11.18;;;24.10;65.80;;;;;;5053271;28;20041;-89
2022/09/07 02:55:35;;;;;;;12.70;11.38;;;24.00;66.20;;;;;;5024543;28;20131;-91
2022/09/07 02:58:31;;;;;;;13.18;11.00;;;24.00;66.50;;;;;;5052746;28;20029;-81
2022/09/07 03:01:32;;;;;;;11.27;9.93;;;24.40;64.90;;;;;;5052753;28;20052;-79
2022/09/07 03:04:10;;;;;;;14.65;11.15;;;24.60;63.70;;;;;;5035058;28;20040;-93
2022/09/07 03:06:40;;;;;;;12.27;10.38;;;24.90;62.80;;;;;;5035544;28;20044;-86
2022/09/07 03:09:17;;;;;;;11.70;10.50;;;24.90;62.20;;;;;;5018897;28;20060;-89
2022/09/07 03:11:43;;;;;;;11.80;10.13;;;25.00;61.80;;;;;;5035271;28;20062;-90
2022/09/07 03:14:19;;;;;;;11.38;9.57;;;24.90;61.30;;;;;;5044676;28;20513;-80
2022/09/07 03:16:48;;;;;;;14.15;10.50;;;24.90;61.10;;;;;;5035720;28;20021;-81
2022/09/07 03:19:14;;;;;;;13.57;11.35;;;24.80;61.30;;;;;;5034645;28;20052;-82
2022/09/07 03:21:39;;;;;;;16.80;11.52;;;24.90;60.90;;;;;;5035681;28;20108;-90
2022/09/07 03:24:05;;;;;;;12.40;11.00;;;24.70;60.80;;;;;;5031686;28;20423;-91
2022/09/07 03:26:31;;;;;;;12.20;10.95;;;24.70;60.80;;;;;;5034495;28;20483;-91
2022/09/07 03:28:58;;;;;;;13.02;11.63;;;24.70;61.00;;;;;;5031134;28;20018;-85
2022/09/07 03:31:24;;;;;;;13.25;11.45;;;24.70;60.90;;;;;;5015751;28;20030;-92
2022/09/07 03:33:50;;;;;;;12.50;11.18;;;24.60;61.90;;;;;;5027197;28;20021;-88
2022/09/07 03:36:15;;;;;;;12.85;11.07;;;24.50;61.20;;;;;;5052893;28;20025;-89
2022/09/07 03:38:41;;;;;;;12.85;11.45;;;24.20;63.00;;;;;;5034167;28;20027;-80
2022/09/07 03:41:07;;;;;;;11.40;10.20;;;24.10;62.90;;;;;;5034687;28;20056;-89
2022/09/07 03:43:33;;;;;;;16.08;11.45;;;24.20;62.40;;;;;;5034040;28;20021;-89
2022/09/07 03:46:04;;;;;;;14.20;12.02;;;24.10;63.60;;;;;;5040292;28;20038;-89
2022/09/07 03:48:31;;;;;;;12.18;10.05;;;24.10;62.30;;;;;;5018461;28;20068;-88
2022/09/07 03:50:58;;;;;;;17.60;10.57;;;24.20;63.10;;;;;;5035352;28;20052;-89
2022/09/07 03:53:24;;;;;;;11.93;10.63;;;24.20;62.40;;;;;;5044267;28;20080;-89
2022/09/07 03:56:03;;;;;;;12.50;10.90;;;24.30;61.80;;;;;;5027001;28;20071;-82
2022/09/07 03:58:30;;;;;;;13.13;11.73;;;24.40;61.50;;;;;;5046901;28;20028;-82
2022/09/07 04:00:57;;;;;;;12.02;10.13;;;24.40;61.50;;;;;;5054068;28;20021;-88
2022/09/07 04:03:22;;;;;;;14.63;11.90;;;24.40;61.80;;;;;;5047691;28;20492;-81
2022/09/07 04:05:48;;;;;;;12.38;10.50;;;24.30;62.10;;;;;;5018815;28;20044;-89
2022/09/07 04:08:14;;;;;;;12.75;11.45;;;24.30;61.90;;;;;;5018621;28;20461;-84
2022/09/07 04:10:40;;;;;;;12.23;10.95;;;24.30;61.50;;;;;;5029496;28;20029;-85
2022/09/07 04:13:06;;;;;;;13.63;11.70;;;24.40;61.20;;;;;;5024654;28;20025;-82
2022/09/07 04:15:33;;;;;;;13.88;11.77;;;24.40;61.20;;;;;;5037057;28;20056;-89
2022/09/07 04:17:59;;;;;;;14.23;11.73;;;24.40;61.30;;;;;;5022818;28;20116;-84
2022/09/07 04:20:25;;;;;;;11.52;10.20;;;24.40;61.20;;;;;;5038469;28;20058;-80
2022/09/07 04:22:50;;;;;;;11.60;10.27;;;24.30;61.70;;;;;;5036378;28;20021;-81
2022/09/07 04:25:17;;;;;;;12.02;10.82;;;23.90;63.70;;;;;;5050499;28;20163;-82
2022/09/07 04:27:43;;;;;;;14.40;12.23;;;23.50;64.90;;;;;;5055534;28;20079;-83
2022/09/07 04:30:09;;;;;;;13.18;10.90;;;23.40;66.00;;;;;;5038226;28;20040;-88
2022/09/07 04:32:35;;;;;;;11.13;10.02;;;23.70;65.50;;;;;;5053846;28;20025;-87
2022/09/07 04:35:01;;;;;;;11.43;9.90;;;24.00;64.30;;;;;;5018473;28;20036;-87
2022/09/07 04:37:27;;;;;;;12.98;10.15;;;24.10;63.70;;;;;;5019036;28;20052;-87
2022/09/07 04:39:53;;;;;;;13.48;11.40;;;24.30;63.60;;;;;;5037395;28;20029;-83
2022/09/07 04:42:25;;;;;;;11.82;10.40;;;24.50;62.20;;;;;;5054893;28;20025;-87
2022/09/07 04:44:51;;;;;;;16.35;10.75;;;24.60;61.80;;;;;;5055150;28;20029;-81
2022/09/07 04:47:16;;;;;;;16.13;11.43;;;24.70;61.50;;;;;;5027582;28;20163;-85
2022/09/07 04:49:42;;;;;;;13.88;11.98;;;24.60;61.40;;;;;;5031152;28;20376;-82
2022/09/07 04:52:08;;;;;;;14.20;12.45;;;24.70;61.40;;;;;;5035489;28;20106;-81
2022/09/07 04:54:34;;;;;;;12.73;10.48;;;24.70;61.60;;;;;;5042466;28;20021;-86
2022/09/07 04:56:59;;;;;;;16.63;12.32;;;24.60;62.90;;;;;;5049249;28;20384;-83
2022/09/07 04:59:25;;;;;;;15.45;11.70;;;24.40;63.80;;;;;;5026284;28;20029;-85
2022/09/07 05:01:54;;;;;;;12.60;11.30;;;24.50;63.00;;;;;;5037519;28;20039;-86
2022/09/07 05:04:20;;;;;;;14.10;11.77;;;24.60;62.90;;;;;;5037311;28;20112;-84
2022/09/07 05:06:45;;;;;;;15.35;12.05;;;24.70;62.80;;;;;;5020715;28;20033;-86
2022/09/07 05:09:11;;;;;;;11.55;10.25;;;24.80;62.80;;;;;;5031637;28;20036;-83
2022/09/07 05:11:37;;;;;;;12.48;11.15;;;24.70;63.80;;;;;;5036739;28;20029;-85
2022/09/07 05:14:03;;;;;;;13.10;11.30;;;24.60;64.40;;;;;;5054488;28;20032;-83
2022/09/07 05:16:30;;;;;;;12.02;10.82;;;24.80;64.00;;;;;;5027650;28;20025;-87
2022/09/07 05:18:58;;;;;;;13.27;11.90;;;24.90;63.60;;;;;;5035349;28;20051;-84
2022/09/07 05:21:27;;;;;;;12.02;10.73;;;25.10;63.10;;;;;;5036357;28;20021;-84
2022/09/07 05:23:55;;;;;;;12.88;10.98;;;25.30;62.90;;;;;;5052932;28;20032;-82
2022/09/07 05:26:25;;;;;;;13.65;9.77;;;25.20;63.80;;;;;;5036995;28;20069;-85
2022/09/07 05:28:51;;;;;;;11.05;10.00;;;25.20;63.90;;;;;;5037188;28;20491;-87
2022/09/07 05:31:19;;;;;;;12.55;10.70;;;25.30;64.00;;;;;;5037294;28;20028;-90
2022/09/07 05:33:47;;;;;;;11.40;9.57;;;25.20;64.30;;;;;;5049385;28;20084;-86
2022/09/07 05:36:13;;;;;;;11.02;9.88;;;25.30;63.80;;;;;;5036674;28;20022;-86
2022/09/07 05:38:39;;;;;;;11.98;10.23;;;25.30;63.70;;;;;;5034456;28;20522;-86
2022/09/07 05:41:20;;;;;;;10.63;9.25;;;25.60;63.30;;;;;;5037233;28;20026;-88
2022/09/07 05:43:46;;;;;;;;;;;25.90;62.60;;;;;;5037081;28;20031;-89
2022/09/07 05:46:13;;;;;;;11.18;9.98;;;26.00;62.60;;;;;;5069826;28;19978;-85
2022/09/07 05:48:39;;;;;;;12.55;10.27;;;26.10;62.70;;;;;;5035683;28;20021;-91
2022/09/07 05:51:06;;;;;;;11.57;10.38;;;26.10;62.70;;;;;;5028136;28;20131;-85
2022/09/07 05:53:43;;;;;;;12.32;9.88;;;26.00;63.00;;;;;;5031587;28;20025;-93
2022/09/07 05:56:10;;;;;;;10.43;9.25;;;26.10;62.90;;;;;;5048914;28;20073;-90
2022/09/07 05:58:36;;;;;;;9.80;8.80;;;26.40;62.40;;;;;;5044489;28;20017;-93
2022/09/07 06:01:10;;;;;;;10.80;9.35;;;26.40;62.10;;;;;;5026545;28;20025;-83
2022/09/07 06:03:37;;;;;;;12.25;10.02;;;26.60;62.20;;;;;;5034655;28;20021;-92
2022/09/07 06:06:11;;;;;;;11.00;9.50;;;26.60;62.30;;;;;;5016329;28;20041;-88
2022/09/07 06:08:38;;;;;;;10.75;8.80;;;26.50;62.60;;;;;;5041374;28;20496;-82
2022/09/07 06:11:08;;;;;;;12.70;9.52;;;26.40;62.90;;;;;;5030184;28;20485;-82
2022/09/07 06:13:34;;;;;;;11.20;8.27;;;26.40;63.00;;;;;;5017562;28;20033;-80
2022/09/07 06:16:05;;;;;;;9.98;8.63;;;26.40;63.10;;;;;;5047229;28;20040;-91
2022/09/07 06:18:33;;;;;;;35.25;29.13;;;26.30;63.50;;;;;;5029754;28;20392;-91
2022/09/07 06:21:12;;;;;;;22.73;17.95;;;26.30;63.70;;;;;;5031875;28;20384;-92
2022/09/07 06:23:40;;;;;;;12.30;8.60;;;26.60;63.20;;;;;;5052134;28;20472;-87
2022/09/07 06:26:07;;;;;;;9.40;8.10;;;26.80;63.50;;;;;;5032233;28;20033;-86
2022/09/07 06:28:35;;;;;;;9.57;8.57;;;26.90;62.90;;;;;;5035319;28;20116;-88
2022/09/07 06:31:11;;;;;;;10.35;9.10;;;27.10;62.80;;;;;;5033892;28;20024;-88
2022/09/07 06:33:37;;;;;;;11.10;8.93;;;27.20;61.60;;;;;;5035725;28;20071;-82
2022/09/07 06:36:05;;;;;;;10.98;8.85;;;26.80;62.30;;;;;;5053465;28;20455;-85
2022/09/07 06:38:36;;;;;;;10.75;8.55;;;26.90;62.50;;;;;;5033662;28;20017;-80
2022/09/07 06:41:04;;;;;;;10.63;8.35;;;27.10;62.20;;;;;;5018058;28;20026;-84
2022/09/07 06:43:30;;;;;;;12.55;8.90;;;27.40;62.00;;;;;;5035137;28;20491;-89
2022/09/07 06:45:56;;;;;;;8.68;7.75;;;27.60;61.30;;;;;;5024523;28;20083;-79
2022/09/07 06:48:22;;;;;;;9.63;8.05;;;27.80;59.50;;;;;;5026116;28;20042;-87
2022/09/07 06:51:17;;;;;;;10.90;8.32;;;26.90;61.20;;;;;;5035825;28;20056;-85
2022/09/07 06:53:44;;;;;;;9.40;7.65;;;26.80;62.20;;;;;;5028748;28;20488;-77
2022/09/07 06:56:13;;;;;;;9.73;8.73;;;26.80;61.40;;;;;;5041307;28;20026;-80
2022/09/07 06:58:39;;;;;;;11.18;8.68;;;27.00;62.50;;;;;;5048349;28;20021;-89
2022/09/07 07:01:10;;;;;;;8.85;7.65;;;27.30;61.40;;;;;;5033805;28;20400;-83
2022/09/07 07:03:36;;;;;;;9.50;8.50;;;27.60;59.40;;;;;;5032512;28;20044;-80
2022/09/07 07:06:03;;;;;;;9.75;7.43;;;27.50;59.20;;;;;;5035055;28;20045;-90
2022/09/07 07:08:29;;;;;;;10.63;7.35;;;27.00;60.10;;;;;;5052664;28;20013;-81
2022/09/07 07:10:59;;;;;;;8.00;7.20;;;26.60;60.00;;;;;;5052101;28;20075;-79
2022/09/07 07:13:25;;;;;;;8.48;7.43;;;26.10;60.70;;;;;;5034605;28;20021;-87
2022/09/07 07:15:52;;;;;;;8.07;6.88;;;26.20;61.00;;;;;;5034895;28;20391;-83
2022/09/07 07:18:18;;;;;;;8.68;7.32;;;26.60;59.80;;;;;;5052806;28;20087;-84
2022/09/07 07:20:44;;;;;;;11.82;6.82;;;26.10;59.90;;;;;;5052890;28;20031;-88
2022/09/07 07:23:11;;;;;;;9.32;6.63;;;26.20;61.20;;;;;;5052675;28;20013;-83
2022/09/07 07:25:37;;;;;;;7.57;6.55;;;26.50;59.80;;;;;;5052480;28;20036;-83
2022/09/07 07:28:03;;;;;;;10.10;7.18;;;26.60;60.20;;;;;;5052826;28;20021;-77
2022/09/07 07:30:30;;;;;;;13.48;7.50;;;27.00;60.70;;;;;;5052876;28;20028;-85
2022/09/07 07:32:57;;;;;;;9.80;7.20;;;27.40;59.70;;;;;;5052588;28;20498;-88
2022/09/07 07:35:23;;;;;;;10.43;6.82;;;27.20;58.70;;;;;;5035958;28;20468;-82
2022/09/07 07:37:53;;;;;;;7.88;6.55;;;27.40;58.90;;;;;;5038868;28;20495;-82
2022/09/07 07:40:18;;;;;;;11.07;6.95;;;27.20;59.90;;;;;;5038621;28;20079;-79
2022/09/07 07:42:44;;;;;;;8.25;7.32;;;27.40;59.50;;;;;;5056197;28;20411;-83
2022/09/07 07:45:11;;;;;;;8.57;7.53;;;27.00;59.40;;;;;;5038286;28;20400;-83
2022/09/07 07:47:37;;;;;;;12.35;8.23;;;27.30;59.60;;;;;;5038042;28;20489;-82
2022/09/07 07:50:05;;;;;;;9.18;7.20;;;27.80;59.90;;;;;;5055925;28;20455;-79
2022/09/07 07:52:35;;;;;;;7.45;6.60;;;28.20;58.00;;;;;;5056125;28;20116;-83
2022/09/07 07:55:01;;;;;;;10.45;7.47;;;28.50;58.00;;;;;;5037999;28;20388;-80
2022/09/07 07:57:28;;;;;;;9.48;7.30;;;28.50;58.10;;;;;;5038100;28;20494;-79
2022/09/07 07:59:54;;;;;;;10.00;7.10;;;28.90;57.70;;;;;;5056017;28;20056;-80
2022/09/07 08:02:19;;;;;;;9.25;7.82;;;29.00;57.90;;;;;;5037794;28;20025;-79
2022/09/07 08:04:45;;;;;;;9.18;6.90;;;28.90;57.50;;;;;;5055723;28;20037;-86
2022/09/07 08:07:11;;;;;;;8.52;6.80;;;29.10;57.90;;;;;;5037947;28;20021;-81
2022/09/07 08:09:39;;;;;;;8.77;6.88;;;29.20;57.00;;;;;;5055336;28;20036;-82
2022/09/07 08:12:05;;;;;;;10.98;7.20;;;29.20;56.60;;;;;;5037453;28;20017;-78
2022/09/07 08:14:31;;;;;;;9.23;6.50;;;29.10;57.90;;;;;;5037788;28;20098;-80
2022/09/07 08:16:56;;;;;;;8.57;6.47;;;29.10;56.80;;;;;;5055249;28;20025;-78
2022/09/07 08:19:22;;;;;;;7.38;6.20;;;29.00;57.30;;;;;;5037290;28;20458;-79
2022/09/07 08:21:48;;;;;;;10.52;7.00;;;29.00;57.30;;;;;;5037599;28;20028;-79
2022/09/07 08:24:13;;;;;;;8.68;7.03;;;29.10;57.70;;;;;;5055257;28;20041;-79
2022/09/07 08:26:39;;;;;;;8.52;6.70;;;29.40;56.70;;;;;;5055352;28;20420;-80
2022/09/07 08:29:05;;;;;;;9.40;6.43;;;29.00;56.70;;;;;;5037823;28;20116;-84
2022/09/07 08:31:30;;;;;;;11.20;7.28;;;29.10;57.70;;;;;;5037593;28;20029;-81
2022/09/07 08:33:56;;;;;;;8.75;6.68;;;29.50;57.60;;;;;;5037879;28;20025;-81
2022/09/07 08:36:21;;;;;;;7.95;6.70;;;29.80;57.50;;;;;;5055610;28;20040;-82
2022/09/07 08:38:47;;;;;;;9.18;6.78;;;29.20;56.30;;;;;;5037846;28;20071;-83
2022/09/07 08:41:39;;;;;;;8.88;6.43;;;28.80;57.80;;;;;;5055269;28;20021;-85
2022/09/07 08:44:23;;;;;;;9.07;6.57;;;29.30;57.40;;;;;;5055257;28;20025;-83
2022/09/07 08:47:17;;;;;;;8.93;6.10;;;29.30;57.50;;;;;;5054265;28;20054;-85
2022/09/07 08:49:47;;;;;;;10.02;7.10;;;29.00;58.50;;;;;;5037760;28;20151;-85
2022/09/07 08:52:40;;;;;;;8.88;6.40;;;29.30;57.20;;;;;;5054972;28;20063;-81
2022/09/07 08:55:13;;;;;;;8.95;6.32;;;29.50;57.30;;;;;;5029790;28;20033;-85
2022/09/07 08:57:46;;;;;;;9.43;6.55;;;29.30;57.20;;;;;;5037358;28;20551;-88
2022/09/07 09:00:14;;;;;;;8.48;6.05;;;29.50;57.10;;;;;;5054707;28;20025;-82
2022/09/07 09:02:40;;;;;;;8.20;6.22;;;29.60;57.20;;;;;;5037150;28;20407;-79
2022/09/07 09:05:26;;;;;;;8.55;6.07;;;29.60;56.60;;;;;;5054871;28;20365;-80
2022/09/07 09:08:22;;;;;;;7.43;5.90;;;29.30;57.10;;;;;;5037015;28;20029;-81
2022/09/07 09:11:06;;;;;;;6.93;5.93;;;29.30;57.50;;;;;;5054580;28;20113;-80
2022/09/07 09:13:53;;;;;;;10.02;6.38;;;29.40;56.50;;;;;;5037029;28;20017;-82
2022/09/07 09:16:31;;;;;;;7.93;6.50;;;29.30;57.60;;;;;;5036857;28;20040;-79
2022/09/07 09:19:18;;;;;;;8.48;6.45;;;29.20;57.10;;;;;;5054706;28;20067;-82
2022/09/07 09:21:44;;;;;;;7.38;6.57;;;29.00;57.90;;;;;;5054358;28;20555;-82
2022/09/07 09:24:22;;;;;;;7.30;5.80;;;28.60;57.60;;;;;;5036516;28;20033;-80
2022/09/07 09:26:52;;;;;;;7.15;6.32;;;29.20;58.70;;;;;;5054154;28;20441;-83
2022/09/07 09:29:20;;;;;;;10.00;6.28;;;29.80;57.60;;;;;;5054655;28;20054;-82
2022/09/07 09:31:46;;;;;;;9.52;6.45;;;30.40;56.80;;;;;;5036459;28;20052;-85
2022/09/07 09:34:16;;;;;;;8.55;6.82;;;30.90;55.40;;;;;;5036549;28;20396;-83
2022/09/07 09:36:47;;;;;;;7.88;6.53;;;31.20;54.60;;;;;;5036536;28;20033;-82
2022/09/07 09:39:27;;;;;;;7.88;6.00;;;31.10;54.40;;;;;;5036304;28;20040;-81
2022/09/07 09:41:55;;;;;;;7.80;5.57;;;30.60;55.50;;;;;;5053976;28;20047;-80
2022/09/07 09:44:22;;;;;;;6.43;5.55;;;30.40;56.60;;;;;;5053987;28;20037;-87
2022/09/07 09:46:51;;;;;;;7.32;5.55;;;30.60;56.30;;;;;;5036405;28;20040;-83
2022/09/07 09:49:17;;;;;;;7.38;5.65;;;31.00;55.50;;;;;;5036250;28;20071;-82
2022/09/07 09:51:51;;;;;;;6.15;5.20;;;31.20;55.40;;;;;;5053906;28;20053;-82
2022/09/07 09:54:36;;;;;;;6.90;5.78;;;31.10;54.80;;;;;;5036167;28;20025;-83
2022/09/07 09:57:02;;;;;;;6.30;5.05;;;31.10;54.80;;;;;;5036339;28;20028;-83
2022/09/07 09:59:30;;;;;;;9.10;5.75;;;31.40;55.70;;;;;;5053980;28;20024;-84
2022/09/07 10:01:57;;;;;;;6.82;5.88;;;31.50;55.10;;;;;;5036114;28;20075;-83
2022/09/07 10:04:30;;;;;;;6.47;5.72;;;31.40;55.40;;;;;;5035651;28;20076;-87
2022/09/07 10:07:18;;;;;;;8.40;5.80;;;31.80;55.40;;;;;;5036277;28;20428;-88
2022/09/07 10:09:49;;;;;;;7.22;5.50;;;32.30;54.70;;;;;;5035768;28;20032;-81
2022/09/07 10:12:34;;;;;;;7.25;5.35;;;32.60;53.60;;;;;;5053490;28;20051;-82
2022/09/07 10:15:28;;;;;;;7.55;5.45;;;32.40;53.20;;;;;;5053426;28;20040;-85
2022/09/07 10:17:54;;;;;;;12.65;6.07;;;32.20;53.80;;;;;;5053739;28;20032;-79
2022/09/07 10:20:36;;;;;;;7.28;5.95;;;32.00;54.10;;;;;;5053424;28;20036;-83
2022/09/07 10:23:04;;;;;;;7.80;5.63;;;32.00;53.10;;;;;;5035639;28;20060;-79
2022/09/07 10:25:35;;;;;;;8.50;6.20;;;31.70;52.80;;;;;;5053300;28;20115;-84
2022/09/07 10:28:01;;;;;;;7.25;6.47;;;31.20;54.20;;;;;;5053476;28;20024;-82
2022/09/07 10:30:32;;;;;;;8.55;6.45;;;31.70;54.90;;;;;;5035525;28;20090;-86
2022/09/07 10:33:17;;;;;;;12.77;6.70;;;32.00;54.30;;;;;;5052918;28;20033;-82
2022/09/07 10:36:19;;;;;;;8.10;6.07;;;32.10;54.60;;;;;;5030781;28;20025;-80
2022/09/07 10:38:55;;;;;;;13.32;6.50;;;32.40;54.70;;;;;;5034873;28;20170;-81
2022/09/07 10:41:28;;;;;;;8.73;6.15;;;32.60;54.70;;;;;;5053069;28;20021;-90
2022/09/07 10:43:55;;;;;;;6.97;5.80;;;32.40;53.90;;;;;;5035125;28;20052;-86
2022/09/07 10:46:24;;;;;;;8.07;5.75;;;32.50;53.80;;;;;;5034988;28;20060;-79
2022/09/07 10:49:26;;;;;;;10.32;5.97;;;32.80;54.20;;;;;;5035350;28;20379;-85
2022/09/07 10:52:11;;;;;;;7.95;5.90;;;32.80;53.40;;;;;;4972008;28;20058;-82
2022/09/07 10:54:43;;;;;;;10.85;6.70;;;32.70;54.40;;;;;;4956193;28;20034;-89
2022/09/07 10:57:24;;;;;;;7.75;5.38;;;32.60;53.40;;;;;;4972676;28;20042;-81
2022/09/07 11:00:02;;;;;;;7.00;5.68;;;32.60;54.00;;;;;;4972646;28;20045;-82
2022/09/07 11:02:49;;;;;;;6.70;6.00;;;32.80;53.50;;;;;;4956673;28;20039;-88
2022/09/07 11:05:33;;;;;;;8.55;6.50;;;33.10;53.60;;;;;;4972421;28;20118;-85
2022/09/07 11:08:33;;;;;;;11.68;5.95;;;33.50;52.90;;;;;;4972308;28;20039;-79
2022/09/07 11:11:19;;;;;;;6.28;5.68;;;33.20;52.90;;;;;;4974272;28;20169;-83
2022/09/07 11:13:49;;;;;;;6.82;5.28;;;32.90;53.20;;;;;;4959934;28;20030;-86
2022/09/07 11:16:20;;;;;;;7.03;5.75;;;32.70;53.60;;;;;;4976272;28;20394;-83
2022/09/07 11:18:56;;;;;;;5.53;4.93;;;32.90;53.90;;;;;;4975909;28;20114;-84
2022/09/07 11:21:27;;;;;;;7.95;6.00;;;32.80;53.50;;;;;;4960041;28;20031;-83
2022/09/07 11:24:10;;;;;;;6.75;5.53;;;33.20;54.60;;;;;;4976195;28;20027;-85
2022/09/07 11:26:41;;;;;;;7.05;5.30;;;33.50;53.10;;;;;;5028163;28;20136;-82
2022/09/07 11:29:29;;;;;;;8.05;5.65;;;33.90;52.60;;;;;;5056767;28;20025;-90
2022/09/07 11:32:19;;;;;;;6.75;5.60;;;33.70;51.80;;;;;;5056760;28;20025;-84
2022/09/07 11:35:11;;;;;;;8.50;6.13;;;33.70;52.10;;;;;;5045702;28;20392;-84
2022/09/07 11:37:46;;;;;;;9.13;5.80;;;33.90;51.60;;;;;;5056983;28;20029;-83
2022/09/07 11:40:23;;;;;;;7.30;6.25;;;34.10;52.50;;;;;;5038628;28;20099;-82
2022/09/07 11:42:52;;;;;;;6.60;5.55;;;34.10;52.70;;;;;;5038613;28;20021;-84
2022/09/07 11:45:22;;;;;;;7.47;5.95;;;33.90;53.20;;;;;;5038229;28;20037;-82
2022/09/07 11:47:59;;;;;;;6.30;5.70;;;33.60;53.00;;;;;;5056459;28;20021;-82
2022/09/07 11:50:28;;;;;;;7.70;5.45;;;33.70;52.50;;;;;;5038234;28;20035;-82
2022/09/07 11:53:03;;;;;;;7.65;5.70;;;33.80;51.90;;;;;;5056004;28;20033;-85
2022/09/07 11:55:33;;;;;;;7.90;5.53;;;33.80;53.10;;;;;;5038595;28;20036;-84
2022/09/07 11:58:21;;;;;;;6.78;6.03;;;33.70;52.90;;;;;;5038243;28;20116;-85
2022/09/07 12:01:05;;;;;;;8.02;5.90;;;33.90;52.00;;;;;;5056231;28;20024;-82
2022/09/07 12:03:58;;;;;;;8.00;6.15;;;34.00;51.70;;;;;;5038619;28;20399;-83
2022/09/07 12:06:57;;;;;;;6.95;6.00;;;33.90;52.30;;;;;;5055769;28;20080;-82
2022/09/07 12:09:32;;;;;;;8.07;5.50;;;34.00;52.20;;;;;;5037930;28;20029;-81
2022/09/07 12:12:01;;;;;;;8.57;6.03;;;33.80;52.10;;;;;;5056019;28;20065;-85
2022/09/07 12:14:26;;;;;;;6.82;5.93;;;33.70;52.40;;;;;;5038206;28;20021;-84
2022/09/07 12:17:11;;;;;;;6.35;5.53;;;33.80;52.70;;;;;;5037842;28;20029;-80
2022/09/07 12:19:37;;;;;;;7.88;6.35;;;33.90;51.70;;;;;;5037848;28;20441;-83
2022/09/07 12:22:02;;;;;;;6.95;6.18;;;33.80;52.40;;;;;;5037811;28;20539;-82
2022/09/07 12:24:34;;;;;;;6.88;6.00;;;33.50;52.50;;;;;;5055432;28;20025;-85
2022/09/07 12:27:19;;;;;;;7.57;5.72;;;33.40;52.20;;;;;;5055598;28;20114;-82
2022/09/07 12:30:10;;;;;;;9.15;6.30;;;33.20;53.00;;;;;;5055656;28;20476;-82
2022/09/07 12:32:54;;;;;;;7.25;6.53;;;33.10;52.60;;;;;;5037816;28;20025;-84
2022/09/07 12:35:32;;;;;;;8.32;6.15;;;33.50;52.50;;;;;;5037670;28;20052;-85
2022/09/07 12:38:16;;;;;;;8.65;6.60;;;33.60;51.90;;;;;;5055134;28;20056;-84
2022/09/07 12:40:48;;;;;;;11.45;6.32;;;33.40;52.30;;;;;;5055678;28;20051;-83
2022/09/07 12:43:14;;;;;;;7.75;6.40;;;33.40;52.20;;;;;;5037355;28;20050;-82
2022/09/07 12:45:39;;;;;;;6.97;6.15;;;33.40;52.70;;;;;;5055186;28;20040;-84
2022/09/07 12:48:14;;;;;;;8.43;6.90;;;33.40;52.00;;;;;;5055353;28;20041;-83
2022/09/07 12:51:08;;;;;;;9.23;5.93;;;33.70;52.80;;;;;;5055476;28;20029;-81
2022/09/07 12:54:11;;;;;;;7.13;6.40;;;33.90;51.60;;;;;;5055370;28;20036;-80
2022/09/07 12:56:52;;;;;;;8.85;6.57;;;34.10;52.10;;;;;;5037215;28;20438;-83
2022/09/07 12:59:30;;;;;;;10.45;6.38;;;33.50;51.60;;;;;;5037193;28;20468;-83
2022/09/07 13:02:15;;;;;;;10.73;7.25;;;33.40;52.90;;;;;;5055076;28;20072;-84
2022/09/07 13:05:32;;;;;;;9.13;6.93;;;33.70;53.20;;;;;;5054525;28;20032;-86
2022/09/07 13:08:30;;;;;;;7.35;6.65;;;33.90;52.90;;;;;;4974347;28;20129;-85